sensor_id;sensor_type;location;lat;lon;timestamp;P1;durP1;ratioP1;P2;durP2;ratioP2
3815;SDS011;1923;48.154;11.536;2023-06-14T00:02:10;3.53;;;2.33;;
3815;SDS011;1923;48.154;11.536;2023-06-14T00:04:39;4.53;;;2.40;;
3815;SDS011;1923;48.154;11.536;2023-06-14T00:07:07;4.27;;;2.33;;
3815;SDS011;1923;48.154;11.536;2023-06-14T00:09:39;5.13;;;2.27;;
3815;SDS011;1923;48.154;11.536;2023-06-14T00:12:07;4.27;;;2.53;;
3815;SDS011;1923;48.154;11.536;2023-06-14T00:14:35;4.97;;;1.90;;
3815;SDS011;1923;48.154;11.536;2023-06-14T00:17:06;3.23;;;1.90;;
3815;SDS011;1923;48.154;11.536;2023-06-14T00:19:35;3.87;;;2.37;;
3815;SDS011;1923;48.154;11.536;2023-06-14T00:22:05;4.10;;;2.40;;
3815;SDS011;1923;48.154;11.536;2023-06-14T00:24:33;5.10;;;2.40;;
3815;SDS011;1923;48.154;11.536;2023-06-14T00:27:01;4.07;;;2.80;;
3815;SDS011;1923;48.154;11.536;2023-06-14T00:29:29;4.50;;;2.40;;
3815;SDS011;1923;48.154;11.536;2023-06-14T00:31:57;3.70;;;1.90;;
3815;SDS011;1923;48.154;11.536;2023-06-14T00:34:27;3.67;;;2.37;;
3815;SDS011;1923;48.154;11.536;2023-06-14T00:36:55;4.63;;;2.30;;
3815;SDS011;1923;48.154;11.536;2023-06-14T00:39:24;4.27;;;2.90;;
3815;SDS011;1923;48.154;11.536;2023-06-14T00:41:52;4.80;;;2.73;;
3815;SDS011;1923;48.154;11.536;2023-06-14T00:44:20;4.00;;;2.80;;
3815;SDS011;1923;48.154;11.536;2023-06-14T00:46:48;6.93;;;2.93;;
3815;SDS011;1923;48.154;11.536;2023-06-14T00:49:18;5.07;;;2.60;;
3815;SDS011;1923;48.154;11.536;2023-06-14T00:51:49;3.47;;;2.70;;
3815;SDS011;1923;48.154;11.536;2023-06-14T00:54:18;5.10;;;3.03;;
3815;SDS011;1923;48.154;11.536;2023-06-14T00:56:46;3.40;;;2.60;;
3815;SDS011;1923;48.154;11.536;2023-06-14T00:59:14;4.50;;;2.67;;
3815;SDS011;1923;48.154;11.536;2023-06-14T01:01:42;4.43;;;2.73;;
3815;SDS011;1923;48.154;11.536;2023-06-14T01:04:11;6.00;;;3.20;;
3815;SDS011;1923;48.154;11.536;2023-06-14T01:06:41;6.73;;;3.10;;
3815;SDS011;1923;48.154;11.536;2023-06-14T01:09:21;4.37;;;2.43;;
3815;SDS011;1923;48.154;11.536;2023-06-14T01:11:58;6.10;;;3.43;;
3815;SDS011;1923;48.154;11.536;2023-06-14T01:14:33;7.50;;;2.93;;
3815;SDS011;1923;48.154;11.536;2023-06-14T01:17:02;5.43;;;2.67;;
3815;SDS011;1923;48.154;11.536;2023-06-14T01:19:32;5.27;;;3.20;;
3815;SDS011;1923;48.154;11.536;2023-06-14T01:22:00;4.10;;;2.60;;
3815;SDS011;1923;48.154;11.536;2023-06-14T01:24:30;4.60;;;2.93;;
3815;SDS011;1923;48.154;11.536;2023-06-14T01:27:01;4.10;;;2.90;;
3815;SDS011;1923;48.154;11.536;2023-06-14T01:29:30;5.10;;;3.30;;
3815;SDS011;1923;48.154;11.536;2023-06-14T01:31:59;7.87;;;3.33;;
3815;SDS011;1923;48.154;11.536;2023-06-14T01:34:28;4.33;;;2.60;;
3815;SDS011;1923;48.154;11.536;2023-06-14T01:36:57;4.03;;;3.03;;
3815;SDS011;1923;48.154;11.536;2023-06-14T01:39:27;5.60;;;3.20;;
3815;SDS011;1923;48.154;11.536;2023-06-14T01:41:58;3.57;;;3.10;;
3815;SDS011;1923;48.154;11.536;2023-06-14T01:44:27;8.93;;;3.10;;
3815;SDS011;1923;48.154;11.536;2023-06-14T01:46:57;4.23;;;3.07;;
3815;SDS011;1923;48.154;11.536;2023-06-14T01:49:25;5.60;;;3.10;;
3815;SDS011;1923;48.154;11.536;2023-06-14T01:51:54;5.80;;;3.30;;
3815;SDS011;1923;48.154;11.536;2023-06-14T01:54:22;6.83;;;3.40;;
3815;SDS011;1923;48.154;11.536;2023-06-14T01:56:52;4.00;;;2.67;;
3815;SDS011;1923;48.154;11.536;2023-06-14T01:59:22;5.83;;;2.60;;
3815;SDS011;1923;48.154;11.536;2023-06-14T02:01:50;3.90;;;2.90;;
3815;SDS011;1923;48.154;11.536;2023-06-14T02:04:18;5.37;;;3.03;;
3815;SDS011;1923;48.154;11.536;2023-06-14T02:06:46;4.40;;;2.60;;
3815;SDS011;1923;48.154;11.536;2023-06-14T02:09:14;5.47;;;3.20;;
3815;SDS011;1923;48.154;11.536;2023-06-14T02:11:42;5.77;;;3.40;;
3815;SDS011;1923;48.154;11.536;2023-06-14T02:14:10;4.73;;;2.70;;
3815;SDS011;1923;48.154;11.536;2023-06-14T02:16:40;6.03;;;3.07;;
3815;SDS011;1923;48.154;11.536;2023-06-14T02:19:15;4.40;;;2.57;;
3815;SDS011;1923;48.154;11.536;2023-06-14T02:21:43;5.07;;;3.20;;
3815;SDS011;1923;48.154;11.536;2023-06-14T02:24:11;4.63;;;3.23;;
3815;SDS011;1923;48.154;11.536;2023-06-14T02:26:40;3.90;;;2.80;;
3815;SDS011;1923;48.154;11.536;2023-06-14T02:29:08;7.67;;;3.37;;
3815;SDS011;1923;48.154;11.536;2023-06-14T02:31:40;6.17;;;3.20;;
3815;SDS011;1923;48.154;11.536;2023-06-14T02:34:08;10.13;;;3.13;;
3815;SDS011;1923;48.154;11.536;2023-06-14T02:36:36;11.93;;;3.37;;
3815;SDS011;1923;48.154;11.536;2023-06-14T02:39:08;4.70;;;2.77;;
3815;SDS011;1923;48.154;11.536;2023-06-14T02:41:37;4.80;;;3.00;;
3815;SDS011;1923;48.154;11.536;2023-06-14T02:44:05;6.23;;;2.70;;
3815;SDS011;1923;48.154;11.536;2023-06-14T02:46:34;7.53;;;2.83;;
3815;SDS011;1923;48.154;11.536;2023-06-14T02:49:04;5.30;;;3.50;;
3815;SDS011;1923;48.154;11.536;2023-06-14T02:51:32;7.23;;;2.90;;
3815;SDS011;1923;48.154;11.536;2023-06-14T02:54:00;5.37;;;3.53;;
3815;SDS011;1923;48.154;11.536;2023-06-14T02:56:29;3.53;;;2.93;;
3815;SDS011;1923;48.154;11.536;2023-06-14T02:58:57;4.67;;;3.03;;
3815;SDS011;1923;48.154;11.536;2023-06-14T03:01:26;5.57;;;3.00;;
3815;SDS011;1923;48.154;11.536;2023-06-14T03:04:00;4.80;;;3.20;;
3815;SDS011;1923;48.154;11.536;2023-06-14T03:06:31;6.60;;;3.13;;
3815;SDS011;1923;48.154;11.536;2023-06-14T03:08:59;5.73;;;3.17;;
3815;SDS011;1923;48.154;11.536;2023-06-14T03:11:31;4.73;;;2.80;;
3815;SDS011;1923;48.154;11.536;2023-06-14T03:13:59;4.57;;;3.00;;
3815;SDS011;1923;48.154;11.536;2023-06-14T03:16:30;5.27;;;3.10;;
3815;SDS011;1923;48.154;11.536;2023-06-14T03:18:58;4.73;;;4.13;;
3815;SDS011;1923;48.154;11.536;2023-06-14T03:21:26;5.10;;;3.40;;
3815;SDS011;1923;48.154;11.536;2023-06-14T03:23:56;3.83;;;2.90;;
3815;SDS011;1923;48.154;11.536;2023-06-14T03:26:24;4.80;;;3.20;;
3815;SDS011;1923;48.154;11.536;2023-06-14T03:28:52;4.27;;;3.50;;
3815;SDS011;1923;48.154;11.536;2023-06-14T03:31:20;3.93;;;3.30;;
3815;SDS011;1923;48.154;11.536;2023-06-14T03:33:50;9.03;;;3.83;;
3815;SDS011;1923;48.154;11.536;2023-06-14T03:36:18;3.97;;;2.80;;
3815;SDS011;1923;48.154;11.536;2023-06-14T03:38:46;3.80;;;3.07;;
3815;SDS011;1923;48.154;11.536;2023-06-14T03:41:16;5.50;;;3.07;;
3815;SDS011;1923;48.154;11.536;2023-06-14T03:43:44;4.90;;;3.10;;
3815;SDS011;1923;48.154;11.536;2023-06-14T03:46:12;4.20;;;2.90;;
3815;SDS011;1923;48.154;11.536;2023-06-14T03:48:40;7.67;;;3.27;;
3815;SDS011;1923;48.154;11.536;2023-06-14T03:51:09;5.63;;;3.20;;
3815;SDS011;1923;48.154;11.536;2023-06-14T03:53:38;5.10;;;3.10;;
3815;SDS011;1923;48.154;11.536;2023-06-14T03:56:25;6.33;;;3.50;;
3815;SDS011;1923;48.154;11.536;2023-06-14T03:58:54;4.10;;;3.10;;
3815;SDS011;1923;48.154;11.536;2023-06-14T04:01:23;4.90;;;3.10;;
3815;SDS011;1923;48.154;11.536;2023-06-14T04:03:56;5.23;;;3.20;;
3815;SDS011;1923;48.154;11.536;2023-06-14T04:06:25;8.90;;;3.40;;
3815;SDS011;1923;48.154;11.536;2023-06-14T04:08:59;3.93;;;2.60;;
3815;SDS011;1923;48.154;11.536;2023-06-14T04:11:32;6.00;;;3.47;;
3815;SDS011;1923;48.154;11.536;2023-06-14T04:14:01;4.57;;;3.40;;
3815;SDS011;1923;48.154;11.536;2023-06-14T04:16:30;5.03;;;3.60;;
3815;SDS011;1923;48.154;11.536;2023-06-14T04:18:58;3.80;;;2.97;;
3815;SDS011;1923;48.154;11.536;2023-06-14T04:21:26;6.53;;;3.27;;
3815;SDS011;1923;48.154;11.536;2023-06-14T04:23:55;5.13;;;3.23;;
3815;SDS011;1923;48.154;11.536;2023-06-14T04:26:24;5.70;;;3.40;;
3815;SDS011;1923;48.154;11.536;2023-06-14T04:28:58;6.60;;;3.13;;
3815;SDS011;1923;48.154;11.536;2023-06-14T04:31:28;5.63;;;3.33;;
3815;SDS011;1923;48.154;11.536;2023-06-14T04:34:00;5.23;;;3.50;;
3815;SDS011;1923;48.154;11.536;2023-06-14T04:36:32;4.17;;;2.80;;
3815;SDS011;1923;48.154;11.536;2023-06-14T04:39:03;5.03;;;3.90;;
3815;SDS011;1923;48.154;11.536;2023-06-14T04:41:32;5.03;;;2.67;;
3815;SDS011;1923;48.154;11.536;2023-06-14T04:44:02;5.80;;;3.30;;
3815;SDS011;1923;48.154;11.536;2023-06-14T04:46:31;8.53;;;3.80;;
3815;SDS011;1923;48.154;11.536;2023-06-14T04:48:59;4.93;;;3.13;;
3815;SDS011;1923;48.154;11.536;2023-06-14T04:51:29;5.40;;;3.63;;
3815;SDS011;1923;48.154;11.536;2023-06-14T04:53:57;6.30;;;2.60;;
3815;SDS011;1923;48.154;11.536;2023-06-14T04:56:26;4.47;;;3.20;;
3815;SDS011;1923;48.154;11.536;2023-06-14T04:58:56;3.53;;;2.63;;
3815;SDS011;1923;48.154;11.536;2023-06-14T05:01:26;4.67;;;2.63;;
3815;SDS011;1923;48.154;11.536;2023-06-14T05:03:54;4.63;;;2.93;;
3815;SDS011;1923;48.154;11.536;2023-06-14T05:06:23;5.70;;;3.57;;
3815;SDS011;1923;48.154;11.536;2023-06-14T05:08:51;4.67;;;3.07;;
3815;SDS011;1923;48.154;11.536;2023-06-14T05:11:19;5.07;;;3.00;;
3815;SDS011;1923;48.154;11.536;2023-06-14T05:13:47;5.47;;;2.83;;
3815;SDS011;1923;48.154;11.536;2023-06-14T05:16:16;2.90;;;2.33;;
3815;SDS011;1923;48.154;11.536;2023-06-14T05:18:47;5.90;;;2.83;;
3815;SDS011;1923;48.154;11.536;2023-06-14T05:21:15;3.70;;;3.00;;
3815;SDS011;1923;48.154;11.536;2023-06-14T05:23:44;5.07;;;2.80;;
3815;SDS011;1923;48.154;11.536;2023-06-14T05:26:13;5.80;;;3.13;;
3815;SDS011;1923;48.154;11.536;2023-06-14T05:28:41;3.70;;;2.57;;
3815;SDS011;1923;48.154;11.536;2023-06-14T05:31:09;4.40;;;2.73;;
3815;SDS011;1923;48.154;11.536;2023-06-14T05:33:37;4.60;;;3.10;;
3815;SDS011;1923;48.154;11.536;2023-06-14T05:36:06;3.90;;;2.70;;
3815;SDS011;1923;48.154;11.536;2023-06-14T05:38:34;5.60;;;3.03;;
3815;SDS011;1923;48.154;11.536;2023-06-14T05:41:02;3.20;;;2.40;;
3815;SDS011;1923;48.154;11.536;2023-06-14T05:43:30;4.97;;;2.97;;
3815;SDS011;1923;48.154;11.536;2023-06-14T05:45:59;5.23;;;3.00;;
3815;SDS011;1923;48.154;11.536;2023-06-14T05:48:27;5.27;;;2.73;;
3815;SDS011;1923;48.154;11.536;2023-06-14T05:50:58;4.53;;;3.30;;
3815;SDS011;1923;48.154;11.536;2023-06-14T05:53:28;4.70;;;2.83;;
3815;SDS011;1923;48.154;11.536;2023-06-14T05:55:56;4.80;;;2.90;;
3815;SDS011;1923;48.154;11.536;2023-06-14T05:58:24;3.23;;;2.50;;
3815;SDS011;1923;48.154;11.536;2023-06-14T06:00:52;3.80;;;2.67;;
3815;SDS011;1923;48.154;11.536;2023-06-14T06:03:20;9.03;;;3.37;;
3815;SDS011;1923;48.154;11.536;2023-06-14T06:05:49;5.13;;;2.87;;
3815;SDS011;1923;48.154;11.536;2023-06-14T06:08:17;6.70;;;2.87;;
3815;SDS011;1923;48.154;11.536;2023-06-14T06:10:46;4.53;;;3.00;;
3815;SDS011;1923;48.154;11.536;2023-06-14T06:13:15;8.23;;;2.80;;
3815;SDS011;1923;48.154;11.536;2023-06-14T06:15:43;3.17;;;2.40;;
3815;SDS011;1923;48.154;11.536;2023-06-14T06:18:11;5.03;;;2.70;;
3815;SDS011;1923;48.154;11.536;2023-06-14T06:20:39;7.00;;;2.72;;
3815;SDS011;1923;48.154;11.536;2023-06-14T06:23:07;4.68;;;3.00;;
3815;SDS011;1923;48.154;11.536;2023-06-14T06:25:36;3.70;;;3.20;;
3815;SDS011;1923;48.154;11.536;2023-06-14T06:28:05;5.43;;;2.87;;
3815;SDS011;1923;48.154;11.536;2023-06-14T06:30:33;5.07;;;2.80;;
3815;SDS011;1923;48.154;11.536;2023-06-14T06:33:02;3.87;;;2.50;;
3815;SDS011;1923;48.154;11.536;2023-06-14T06:35:30;3.33;;;2.20;;
3815;SDS011;1923;48.154;11.536;2023-06-14T06:37:59;7.40;;;2.63;;
3815;SDS011;1923;48.154;11.536;2023-06-14T06:40:28;5.40;;;2.60;;
3815;SDS011;1923;48.154;11.536;2023-06-14T06:42:56;5.20;;;2.60;;
3815;SDS011;1923;48.154;11.536;2023-06-14T06:45:25;4.57;;;2.30;;
3815;SDS011;1923;48.154;11.536;2023-06-14T06:47:53;4.20;;;2.57;;
3815;SDS011;1923;48.154;11.536;2023-06-14T06:50:22;5.57;;;2.60;;
3815;SDS011;1923;48.154;11.536;2023-06-14T06:52:51;5.90;;;2.57;;
3815;SDS011;1923;48.154;11.536;2023-06-14T06:55:20;5.00;;;2.70;;
3815;SDS011;1923;48.154;11.536;2023-06-14T06:57:48;6.70;;;2.53;;
3815;SDS011;1923;48.154;11.536;2023-06-14T07:00:19;4.77;;;3.10;;
3815;SDS011;1923;48.154;11.536;2023-06-14T07:02:49;5.30;;;2.67;;
3815;SDS011;1923;48.154;11.536;2023-06-14T07:05:17;7.37;;;3.20;;
3815;SDS011;1923;48.154;11.536;2023-06-14T07:07:45;4.30;;;3.13;;
3815;SDS011;1923;48.154;11.536;2023-06-14T07:10:13;6.90;;;2.57;;
3815;SDS011;1923;48.154;11.536;2023-06-14T07:12:41;5.00;;;3.00;;
3815;SDS011;1923;48.154;11.536;2023-06-14T07:15:09;4.83;;;3.03;;
3815;SDS011;1923;48.154;11.536;2023-06-14T07:17:39;4.25;;;2.60;;
3815;SDS011;1923;48.154;11.536;2023-06-14T07:20:09;4.90;;;3.07;;
3815;SDS011;1923;48.154;11.536;2023-06-14T07:22:39;5.07;;;2.40;;
3815;SDS011;1923;48.154;11.536;2023-06-14T07:25:11;5.43;;;3.03;;
3815;SDS011;1923;48.154;11.536;2023-06-14T07:27:42;5.03;;;2.27;;
3815;SDS011;1923;48.154;11.536;2023-06-14T07:30:11;4.43;;;2.80;;
3815;SDS011;1923;48.154;11.536;2023-06-14T07:32:39;5.73;;;2.90;;
3815;SDS011;1923;48.154;11.536;2023-06-14T07:35:09;6.67;;;2.70;;
3815;SDS011;1923;48.154;11.536;2023-06-14T07:37:37;3.40;;;2.27;;
3815;SDS011;1923;48.154;11.536;2023-06-14T07:40:05;5.45;;;2.80;;
3815;SDS011;1923;48.154;11.536;2023-06-14T07:42:34;5.57;;;3.00;;
3815;SDS011;1923;48.154;11.536;2023-06-14T07:45:03;4.47;;;2.37;;
3815;SDS011;1923;48.154;11.536;2023-06-14T07:47:31;5.15;;;2.47;;
3815;SDS011;1923;48.154;11.536;2023-06-14T07:50:00;3.85;;;2.40;;
3815;SDS011;1923;48.154;11.536;2023-06-14T07:52:30;3.90;;;2.53;;
3815;SDS011;1923;48.154;11.536;2023-06-14T07:54:58;2.80;;;2.30;;
3815;SDS011;1923;48.154;11.536;2023-06-14T07:57:26;5.67;;;2.23;;
3815;SDS011;1923;48.154;11.536;2023-06-14T07:59:54;3.60;;;2.10;;
3815;SDS011;1923;48.154;11.536;2023-06-14T08:02:22;4.20;;;2.20;;
3815;SDS011;1923;48.154;11.536;2023-06-14T08:04:51;4.10;;;2.23;;
3815;SDS011;1923;48.154;11.536;2023-06-14T08:07:20;5.03;;;2.90;;
3815;SDS011;1923;48.154;11.536;2023-06-14T08:09:49;3.90;;;2.10;;
3815;SDS011;1923;48.154;11.536;2023-06-14T08:12:18;4.10;;;2.13;;
3815;SDS011;1923;48.154;11.536;2023-06-14T08:14:46;2.70;;;2.17;;
3815;SDS011;1923;48.154;11.536;2023-06-14T08:17:26;3.43;;;2.23;;
3815;SDS011;1923;48.154;11.536;2023-06-14T08:19:54;3.60;;;2.20;;
3815;SDS011;1923;48.154;11.536;2023-06-14T08:22:23;3.60;;;2.20;;
3815;SDS011;1923;48.154;11.536;2023-06-14T08:24:55;2.97;;;2.20;;
3815;SDS011;1923;48.154;11.536;2023-06-14T08:27:23;4.10;;;2.33;;
3815;SDS011;1923;48.154;11.536;2023-06-14T08:29:54;5.23;;;2.23;;
3815;SDS011;1923;48.154;11.536;2023-06-14T08:32:22;3.37;;;2.03;;
3815;SDS011;1923;48.154;11.536;2023-06-14T08:34:50;3.80;;;2.10;;
3815;SDS011;1923;48.154;11.536;2023-06-14T08:37:30;7.70;;;2.27;;
3815;SDS011;1923;48.154;11.536;2023-06-14T08:40:01;6.30;;;2.23;;
3815;SDS011;1923;48.154;11.536;2023-06-14T08:42:32;3.53;;;1.80;;
3815;SDS011;1923;48.154;11.536;2023-06-14T08:45:02;3.07;;;1.97;;
3815;SDS011;1923;48.154;11.536;2023-06-14T08:47:30;2.93;;;1.73;;
3815;SDS011;1923;48.154;11.536;2023-06-14T08:50:07;5.10;;;2.00;;
3815;SDS011;1923;48.154;11.536;2023-06-14T08:52:54;4.97;;;2.20;;
3815;SDS011;1923;48.154;11.536;2023-06-14T08:55:25;2.60;;;1.60;;
3815;SDS011;1923;48.154;11.536;2023-06-14T08:57:57;2.70;;;2.07;;
3815;SDS011;1923;48.154;11.536;2023-06-14T09:00:26;3.60;;;2.10;;
3815;SDS011;1923;48.154;11.536;2023-06-14T09:02:54;2.90;;;1.70;;
3815;SDS011;1923;48.154;11.536;2023-06-14T09:05:24;2.80;;;1.90;;
3815;SDS011;1923;48.154;11.536;2023-06-14T09:07:53;3.23;;;1.80;;
3815;SDS011;1923;48.154;11.536;2023-06-14T09:10:25;3.30;;;2.00;;
3815;SDS011;1923;48.154;11.536;2023-06-14T09:12:55;4.47;;;1.97;;
3815;SDS011;1923;48.154;11.536;2023-06-14T09:15:23;3.60;;;2.13;;
3815;SDS011;1923;48.154;11.536;2023-06-14T09:17:51;3.10;;;2.13;;
3815;SDS011;1923;48.154;11.536;2023-06-14T09:20:20;4.10;;;2.00;;
3815;SDS011;1923;48.154;11.536;2023-06-14T09:22:51;3.40;;;1.40;;
3815;SDS011;1923;48.154;11.536;2023-06-14T09:25:20;2.90;;;2.07;;
3815;SDS011;1923;48.154;11.536;2023-06-14T09:28:07;3.08;;;1.92;;
3815;SDS011;1923;48.154;11.536;2023-06-14T09:30:36;2.80;;;2.20;;
3815;SDS011;1923;48.154;11.536;2023-06-14T09:33:05;3.97;;;2.17;;
3815;SDS011;1923;48.154;11.536;2023-06-14T09:35:33;3.23;;;1.80;;
3815;SDS011;1923;48.154;11.536;2023-06-14T09:38:02;3.07;;;1.90;;
3815;SDS011;1923;48.154;11.536;2023-06-14T09:40:33;3.10;;;1.70;;
3815;SDS011;1923;48.154;11.536;2023-06-14T09:43:04;2.43;;;1.60;;
3815;SDS011;1923;48.154;11.536;2023-06-14T09:45:37;2.70;;;1.50;;
3815;SDS011;1923;48.154;11.536;2023-06-14T09:48:07;2.87;;;1.77;;
3815;SDS011;1923;48.154;11.536;2023-06-14T09:50:36;2.17;;;1.63;;
3815;SDS011;1923;48.154;11.536;2023-06-14T09:53:06;3.13;;;1.90;;
3815;SDS011;1923;48.154;11.536;2023-06-14T09:55:35;3.25;;;1.90;;
3815;SDS011;1923;48.154;11.536;2023-06-14T09:58:05;2.20;;;1.90;;
3815;SDS011;1923;48.154;11.536;2023-06-14T10:00:35;3.37;;;2.07;;
3815;SDS011;1923;48.154;11.536;2023-06-14T10:03:06;3.10;;;1.70;;
3815;SDS011;1923;48.154;11.536;2023-06-14T10:05:39;2.73;;;1.80;;
3815;SDS011;1923;48.154;11.536;2023-06-14T10:08:11;2.27;;;1.43;;
3815;SDS011;1923;48.154;11.536;2023-06-14T10:10:43;3.80;;;2.17;;
3815;SDS011;1923;48.154;11.536;2023-06-14T10:13:13;2.77;;;1.97;;
3815;SDS011;1923;48.154;11.536;2023-06-14T10:15:44;2.73;;;1.77;;
3815;SDS011;1923;48.154;11.536;2023-06-14T10:18:22;4.57;;;2.13;;
3815;SDS011;1923;48.154;11.536;2023-06-14T10:20:59;3.00;;;1.80;;
3815;SDS011;1923;48.154;11.536;2023-06-14T10:23:37;2.63;;;1.57;;
3815;SDS011;1923;48.154;11.536;2023-06-14T10:26:13;2.40;;;1.80;;
3815;SDS011;1923;48.154;11.536;2023-06-14T10:28:59;3.53;;;2.00;;
3815;SDS011;1923;48.154;11.536;2023-06-14T10:31:40;2.37;;;1.80;;
3815;SDS011;1923;48.154;11.536;2023-06-14T10:34:10;3.27;;;2.47;;
3815;SDS011;1923;48.154;11.536;2023-06-14T10:36:40;3.00;;;1.90;;
3815;SDS011;1923;48.154;11.536;2023-06-14T10:39:11;2.10;;;1.70;;
3815;SDS011;1923;48.154;11.536;2023-06-14T10:41:50;6.17;;;2.60;;
3815;SDS011;1923;48.154;11.536;2023-06-14T10:47:23;2.90;;;1.90;;
3815;SDS011;1923;48.154;11.536;2023-06-14T10:49:53;3.50;;;2.30;;
3815;SDS011;1923;48.154;11.536;2023-06-14T10:52:24;2.90;;;2.10;;
3815;SDS011;1923;48.154;11.536;2023-06-14T10:55:10;3.00;;;2.30;;
3815;SDS011;1923;48.154;11.536;2023-06-14T10:57:42;3.50;;;2.40;;
3815;SDS011;1923;48.154;11.536;2023-06-14T11:00:19;2.80;;;2.20;;
3815;SDS011;1923;48.154;11.536;2023-06-14T11:05:51;3.40;;;2.30;;
3815;SDS011;1923;48.154;11.536;2023-06-14T11:11:15;4.53;;;2.33;;
3815;SDS011;1923;48.154;11.536;2023-06-14T11:13:44;4.60;;;2.20;;
3815;SDS011;1923;48.154;11.536;2023-06-14T11:16:15;3.57;;;2.70;;
3815;SDS011;1923;48.154;11.536;2023-06-14T11:18:45;2.83;;;2.10;;
3815;SDS011;1923;48.154;11.536;2023-06-14T11:21:15;3.00;;;2.20;;
3815;SDS011;1923;48.154;11.536;2023-06-14T11:23:48;3.90;;;2.23;;
3815;SDS011;1923;48.154;11.536;2023-06-14T11:26:24;3.10;;;2.73;;
3815;SDS011;1923;48.154;11.536;2023-06-14T11:28:57;3.10;;;2.67;;
3815;SDS011;1923;48.154;11.536;2023-06-14T11:31:27;3.80;;;2.40;;
3815;SDS011;1923;48.154;11.536;2023-06-14T11:33:56;3.70;;;2.30;;
3815;SDS011;1923;48.154;11.536;2023-06-14T11:36:26;3.93;;;3.00;;
3815;SDS011;1923;48.154;11.536;2023-06-14T11:38:59;4.60;;;3.03;;
3815;SDS011;1923;48.154;11.536;2023-06-14T11:41:32;3.60;;;2.70;;
3815;SDS011;1923;48.154;11.536;2023-06-14T11:44:01;3.77;;;2.40;;
3815;SDS011;1923;48.154;11.536;2023-06-14T11:46:31;3.30;;;2.40;;
3815;SDS011;1923;48.154;11.536;2023-06-14T11:48:59;2.80;;;2.07;;
3815;SDS011;1923;48.154;11.536;2023-06-14T11:51:30;3.53;;;2.80;;
3815;SDS011;1923;48.154;11.536;2023-06-14T11:53:58;4.00;;;2.53;;
3815;SDS011;1923;48.154;11.536;2023-06-14T11:56:27;3.20;;;2.43;;
3815;SDS011;1923;48.154;11.536;2023-06-14T11:58:56;3.37;;;2.40;;
3815;SDS011;1923;48.154;11.536;2023-06-14T12:01:24;2.97;;;2.33;;
3815;SDS011;1923;48.154;11.536;2023-06-14T12:03:54;3.70;;;2.50;;
3815;SDS011;1923;48.154;11.536;2023-06-14T12:06:25;2.93;;;2.43;;
3815;SDS011;1923;48.154;11.536;2023-06-14T12:09:00;4.90;;;2.30;;
3815;SDS011;1923;48.154;11.536;2023-06-14T12:11:33;4.90;;;2.20;;
3815;SDS011;1923;48.154;11.536;2023-06-14T12:14:03;3.50;;;2.47;;
3815;SDS011;1923;48.154;11.536;2023-06-14T12:16:32;3.27;;;2.60;;
3815;SDS011;1923;48.154;11.536;2023-06-14T12:19:08;3.07;;;2.43;;
3815;SDS011;1923;48.154;11.536;2023-06-14T12:21:39;2.60;;;2.40;;
3815;SDS011;1923;48.154;11.536;2023-06-14T12:24:08;3.00;;;2.03;;
3815;SDS011;1923;48.154;11.536;2023-06-14T12:26:39;2.67;;;2.00;;
3815;SDS011;1923;48.154;11.536;2023-06-14T12:29:08;3.73;;;2.67;;
3815;SDS011;1923;48.154;11.536;2023-06-14T12:31:38;4.17;;;2.70;;
3815;SDS011;1923;48.154;11.536;2023-06-14T12:34:06;2.93;;;2.63;;
3815;SDS011;1923;48.154;11.536;2023-06-14T12:36:36;4.40;;;2.60;;
3815;SDS011;1923;48.154;11.536;2023-06-14T12:39:08;7.40;;;3.07;;
3815;SDS011;1923;48.154;11.536;2023-06-14T12:41:36;3.63;;;2.40;;
3815;SDS011;1923;48.154;11.536;2023-06-14T12:44:04;3.60;;;2.60;;
3815;SDS011;1923;48.154;11.536;2023-06-14T12:46:33;3.57;;;2.50;;
3815;SDS011;1923;48.154;11.536;2023-06-14T12:49:01;2.80;;;2.50;;
3815;SDS011;1923;48.154;11.536;2023-06-14T12:51:31;3.70;;;2.50;;
3815;SDS011;1923;48.154;11.536;2023-06-14T12:53:59;3.87;;;2.33;;
3815;SDS011;1923;48.154;11.536;2023-06-14T12:56:27;2.90;;;2.17;;
3815;SDS011;1923;48.154;11.536;2023-06-14T12:58:55;6.93;;;3.30;;
3815;SDS011;1923;48.154;11.536;2023-06-14T13:01:23;3.57;;;2.57;;
3815;SDS011;1923;48.154;11.536;2023-06-14T13:03:51;4.40;;;2.30;;
3815;SDS011;1923;48.154;11.536;2023-06-14T13:06:20;3.17;;;2.30;;
3815;SDS011;1923;48.154;11.536;2023-06-14T13:08:50;3.07;;;2.30;;
3815;SDS011;1923;48.154;11.536;2023-06-14T13:11:21;3.00;;;2.30;;
3815;SDS011;1923;48.154;11.536;2023-06-14T13:13:49;4.20;;;2.67;;
3815;SDS011;1923;48.154;11.536;2023-06-14T13:16:17;3.23;;;2.30;;
3815;SDS011;1923;48.154;11.536;2023-06-14T13:18:45;2.63;;;2.10;;
3815;SDS011;1923;48.154;11.536;2023-06-14T13:21:13;3.00;;;2.40;;
3815;SDS011;1923;48.154;11.536;2023-06-14T13:23:41;6.57;;;2.33;;
3815;SDS011;1923;48.154;11.536;2023-06-14T13:26:11;3.23;;;2.10;;
3815;SDS011;1923;48.154;11.536;2023-06-14T13:28:39;5.47;;;2.93;;
3815;SDS011;1923;48.154;11.536;2023-06-14T13:31:07;4.83;;;2.80;;
3815;SDS011;1923;48.154;11.536;2023-06-14T13:33:35;4.23;;;2.67;;
3815;SDS011;1923;48.154;11.536;2023-06-14T13:36:03;3.33;;;2.40;;
3815;SDS011;1923;48.154;11.536;2023-06-14T13:38:32;3.10;;;2.30;;
3815;SDS011;1923;48.154;11.536;2023-06-14T13:41:00;2.67;;;2.27;;
3815;SDS011;1923;48.154;11.536;2023-06-14T13:43:29;3.80;;;3.00;;
3815;SDS011;1923;48.154;11.536;2023-06-14T13:45:57;2.57;;;1.73;;
3815;SDS011;1923;48.154;11.536;2023-06-14T13:48:25;3.60;;;2.57;;
3815;SDS011;1923;48.154;11.536;2023-06-14T13:50:53;5.10;;;3.30;;
3815;SDS011;1923;48.154;11.536;2023-06-14T13:53:25;3.10;;;2.60;;
3815;SDS011;1923;48.154;11.536;2023-06-14T13:55:57;3.17;;;2.33;;
3815;SDS011;1923;48.154;11.536;2023-06-14T13:58:25;4.10;;;2.50;;
3815;SDS011;1923;48.154;11.536;2023-06-14T14:00:54;3.53;;;2.37;;
3815;SDS011;1923;48.154;11.536;2023-06-14T14:03:23;2.90;;;2.17;;
3815;SDS011;1923;48.154;11.536;2023-06-14T14:05:51;4.20;;;2.37;;
3815;SDS011;1923;48.154;11.536;2023-06-14T14:08:19;4.03;;;2.90;;
3815;SDS011;1923;48.154;11.536;2023-06-14T14:10:47;3.60;;;2.20;;
3815;SDS011;1923;48.154;11.536;2023-06-14T14:13:15;4.10;;;2.10;;
3815;SDS011;1923;48.154;11.536;2023-06-14T14:15:43;4.20;;;2.77;;
3815;SDS011;1923;48.154;11.536;2023-06-14T14:18:12;3.33;;;2.40;;
3815;SDS011;1923;48.154;11.536;2023-06-14T14:20:41;4.53;;;2.50;;
3815;SDS011;1923;48.154;11.536;2023-06-14T14:23:09;3.83;;;2.40;;
3815;SDS011;1923;48.154;11.536;2023-06-14T14:25:38;4.07;;;2.43;;
3815;SDS011;1923;48.154;11.536;2023-06-14T14:28:06;2.90;;;2.60;;
3815;SDS011;1923;48.154;11.536;2023-06-14T14:30:34;7.43;;;2.60;;
3815;SDS011;1923;48.154;11.536;2023-06-14T14:33:05;2.90;;;2.50;;
3815;SDS011;1923;48.154;11.536;2023-06-14T14:35:35;5.10;;;2.27;;
3815;SDS011;1923;48.154;11.536;2023-06-14T14:38:03;3.60;;;2.23;;
3815;SDS011;1923;48.154;11.536;2023-06-14T14:40:32;4.57;;;2.60;;
3815;SDS011;1923;48.154;11.536;2023-06-14T14:43:01;3.10;;;2.33;;
3815;SDS011;1923;48.154;11.536;2023-06-14T14:45:29;3.60;;;2.53;;
3815;SDS011;1923;48.154;11.536;2023-06-14T14:47:57;4.20;;;2.40;;
3815;SDS011;1923;48.154;11.536;2023-06-14T14:50:25;4.17;;;2.23;;
3815;SDS011;1923;48.154;11.536;2023-06-14T14:52:54;2.43;;;2.20;;
3815;SDS011;1923;48.154;11.536;2023-06-14T14:55:23;5.27;;;2.90;;
3815;SDS011;1923;48.154;11.536;2023-06-14T14:57:51;5.23;;;2.13;;
3815;SDS011;1923;48.154;11.536;2023-06-14T15:00:19;3.47;;;2.70;;
3815;SDS011;1923;48.154;11.536;2023-06-14T15:02:48;5.40;;;2.40;;
3815;SDS011;1923;48.154;11.536;2023-06-14T15:05:16;3.23;;;2.63;;
3815;SDS011;1923;48.154;11.536;2023-06-14T15:07:44;3.00;;;2.30;;
3815;SDS011;1923;48.154;11.536;2023-06-14T15:10:14;3.30;;;2.63;;
3815;SDS011;1923;48.154;11.536;2023-06-14T15:12:42;4.20;;;2.37;;
3815;SDS011;1923;48.154;11.536;2023-06-14T15:15:10;3.23;;;2.43;;
3815;SDS011;1923;48.154;11.536;2023-06-14T15:17:38;4.13;;;2.80;;
3815;SDS011;1923;48.154;11.536;2023-06-14T15:20:07;3.10;;;2.47;;
3815;SDS011;1923;48.154;11.536;2023-06-14T15:22:35;5.20;;;2.80;;
3815;SDS011;1923;48.154;11.536;2023-06-14T15:25:04;3.87;;;2.83;;